Time;durP1;ratioP1;P1;durP2;ratioP2;P2;SDS_P1;SDS_P2;PMS_P1;PMS_P2;Temp;Humidity;BMP_temperature;BMP_pressure;BME280_temperature;BME280_humidity;BME280_pressure;Samples;Min_cycle;Max_cycle;Signal;HPM_P1;HPM_P2
2022/06/27 00:01:46;;;;;;;11.43;3.50;;;;;;;;;;6128638;23;20509;-51
2022/06/27 00:04:13;;;;;;;10.65;3.80;;;;;;;;;;6128210;23;20507;-50
2022/06/27 00:06:40;;;;;;;9.05;3.88;;;;;;;;;;6102833;23;20628;-51
2022/06/27 00:09:07;;;;;;;6.13;3.42;;;;;;;;;;6128624;23;20170;-50
2022/06/27 00:11:34;;;;;;;8.65;4.15;;;;;;;;;;6128049;23;20608;-48
2022/06/27 00:14:02;;;;;;;9.35;3.83;;;;;;;;;;6128553;23;20185;-49
2022/06/27 00:16:28;;;;;;;9.13;3.90;;;;;;;;;;6128183;23;20174;-49
2022/06/27 00:19:17;;;;;;;10.88;3.58;;;;;;;;;;6128365;23;20174;-50
2022/06/27 00:21:44;;;;;;;11.48;3.38;;;;;;;;;;6128531;23;20177;-48
2022/06/27 00:24:11;;;;;;;6.95;3.60;;;;;;;;;;6128389;23;20197;-44
2022/06/27 00:26:38;;;;;;;14.02;3.88;;;;;;;;;;6128896;23;20170;-46
2022/06/27 00:29:05;;;;;;;8.60;3.35;;;;;;;;;;6128467;23;20180;-46
2022/06/27 00:31:32;;;;;;;11.82;3.97;;;;;;;;;;6128457;23;20182;-46
2022/06/27 00:33:59;;;;;;;9.52;3.88;;;;;;;;;;6103130;23;20174;-46
2022/06/27 00:36:26;;;;;;;11.27;4.68;;;;;;;;;;6128029;23;20593;-49
2022/06/27 00:38:53;;;;;;;5.85;3.72;;;;;;;;;;6128504;23;20174;-46
2022/06/27 00:41:20;;;;;;;6.13;3.70;;;;;;;;;;6103122;23;20178;-45
2022/06/27 00:43:47;;;;;;;7.97;4.60;;;;;;;;;;6128277;23;20456;-46
2022/06/27 00:46:14;;;;;;;17.75;3.75;;;;;;;;;;6128415;23;20170;-46
2022/06/27 00:48:42;;;;;;;26.45;4.53;;;;;;;;;;6102886;23;20202;-48
2022/06/27 00:51:10;;;;;;;11.77;4.18;;;;;;;;;;6068121;23;20565;-48
2022/06/27 00:53:38;;;;;;;21.05;4.43;;;;;;;;;;6044667;23;20171;-45
2022/06/27 00:56:06;;;;;;;16.17;4.00;;;;;;;;;;6067949;23;20187;-46
2022/06/27 00:58:33;;;;;;;17.55;4.78;;;;;;;;;;6068038;23;20702;-51
2022/06/27 01:01:00;;;;;;;14.60;4.32;;;;;;;;;;6068923;23;20175;-46
2022/06/27 01:03:28;;;;;;;16.25;4.07;;;;;;;;;;6044189;23;20271;-48
2022/06/27 01:05:56;;;;;;;10.48;5.30;;;;;;;;;;6044267;23;20480;-51
2022/06/27 01:08:27;;;;;;;28.85;4.88;;;;;;;;;;6044204;23;20687;-52
2022/06/27 01:10:55;;;;;;;18.30;4.40;;;;;;;;;;6068251;23;20175;-49
2022/06/27 01:13:23;;;;;;;16.80;4.47;;;;;;;;;;6067999;23;20176;-50
2022/06/27 01:15:52;;;;;;;10.98;4.43;;;;;;;;;;6044142;23;20204;-48
2022/06/27 01:18:19;;;;;;;20.48;4.75;;;;;;;;;;6069016;23;20187;-48
2022/06/27 01:20:46;;;;;;;16.13;4.47;;;;;;;;;;6069881;23;20183;-48
2022/06/27 01:23:14;;;;;;;27.63;5.15;;;;;;;;;;6100322;23;20212;-48
2022/06/27 01:25:41;;;;;;;16.00;4.55;;;;;;;;;;6104239;23;20174;-45
2022/06/27 01:28:10;;;;;;;16.73;4.28;;;;;;;;;;6104338;23;20170;-46
2022/06/27 01:30:37;;;;;;;23.17;4.68;;;;;;;;;;6129824;23;20174;-45
2022/06/27 01:33:05;;;;;;;21.40;4.10;;;;;;;;;;6104402;23;20496;-47
2022/06/27 01:35:36;;;;;;;20.90;4.32;;;;;;;;;;6104477;23;20193;-46
2022/06/27 01:38:04;;;;;;;16.75;4.28;;;;;;;;;;6104016;23;20178;-46
2022/06/27 01:40:32;;;;;;;19.15;5.40;;;;;;;;;;6104359;23;20170;-48
2022/06/27 01:43:00;;;;;;;15.40;5.78;;;;;;;;;;6104148;23;20190;-50
2022/06/27 01:45:29;;;;;;;11.95;5.88;;;;;;;;;;6104317;23;20175;-48
2022/06/27 01:47:56;;;;;;;18.80;5.20;;;;;;;;;;6129740;23;20181;-45
2022/06/27 01:50:29;;;;;;;13.68;5.38;;;;;;;;;;6104116;23;20170;-45
2022/06/27 01:52:59;;;;;;;31.48;5.88;;;;;;;;;;6103844;23;20598;-47
2022/06/27 01:55:26;;;;;;;16.30;5.57;;;;;;;;;;6080320;23;20253;-46
2022/06/27 01:57:54;;;;;;;17.77;6.18;;;;;;;;;;6104105;23;20472;-47
2022/06/27 02:00:22;;;;;;;13.77;5.40;;;;;;;;;;6103823;23;20606;-45
2022/06/27 02:02:59;;;;;;;22.30;6.07;;;;;;;;;;6129329;23;20244;-47
2022/06/27 02:05:37;;;;;;;10.63;5.60;;;;;;;;;;6082572;23;20161;-45
2022/06/27 02:08:04;;;;;;;16.98;5.72;;;;;;;;;;6104001;23;20198;-48
2022/06/27 02:10:32;;;;;;;19.67;5.90;;;;;;;;;;6103771;23;20669;-47
2022/06/27 02:13:00;;;;;;;10.07;6.20;;;;;;;;;;6103619;23;20478;-47
2022/06/27 02:15:27;;;;;;;14.43;7.20;;;;;;;;;;6128968;23;20455;-46
2022/06/27 02:17:54;;;;;;;29.83;6.60;;;;;;;;;;6103532;23;20206;-50
2022/06/27 02:20:22;;;;;;;16.90;6.80;;;;;;;;;;6103888;23;20435;-51
2022/06/27 02:22:49;;;;;;;16.25;6.28;;;;;;;;;;6103363;23;20176;-45
2022/06/27 02:25:16;;;;;;;16.95;6.60;;;;;;;;;;6103813;23;20241;-49
2022/06/27 02:27:45;;;;;;;19.35;6.65;;;;;;;;;;6103896;23;20181;-49
2022/06/27 02:30:14;;;;;;;17.50;6.30;;;;;;;;;;6104323;23;20163;-47
2022/06/27 02:32:41;;;;;;;22.73;6.47;;;;;;;;;;6129514;23;20180;-49
2022/06/27 02:35:08;;;;;;;28.55;6.55;;;;;;;;;;6129096;23;20174;-52
2022/06/27 02:37:36;;;;;;;30.48;6.07;;;;;;;;;;6129430;23;20170;-46
2022/06/27 02:40:05;;;;;;;26.02;6.18;;;;;;;;;;6080736;23;20174;-50
2022/06/27 02:42:33;;;;;;;22.52;6.68;;;;;;;;;;6103921;23;20175;-50
2022/06/27 02:45:01;;;;;;;14.32;7.10;;;;;;;;;;6103983;23;20194;-50
2022/06/27 02:47:32;;;;;;;18.70;6.80;;;;;;;;;;6128918;23;20601;-49
2022/06/27 02:50:00;;;;;;;25.55;6.75;;;;;;;;;;6104421;23;20494;-51
2022/06/27 02:52:36;;;;;;;23.02;6.43;;;;;;;;;;6104024;23;20578;-51
2022/06/27 02:55:07;;;;;;;17.17;7.07;;;;;;;;;;6081075;23;20247;-47
2022/06/27 02:57:45;;;;;;;25.75;6.82;;;;;;;;;;6103477;23;20624;-47
2022/06/27 03:00:13;;;;;;;12.35;6.80;;;;;;;;;;6104110;23;20518;-50
2022/06/27 03:02:43;;;;;;;17.60;7.32;;;;;;;;;;6129585;23;20273;-50
2022/06/27 03:05:10;;;;;;;16.40;6.95;;;;;;;;;;6128733;23;20470;-48
2022/06/27 03:07:39;;;;;;;12.90;7.03;;;;;;;;;;6103243;23;20174;-49
2022/06/27 03:10:09;;;;;;;13.07;8.02;;;;;;;;;;6103391;23;20162;-49
2022/06/27 03:12:38;;;;;;;15.32;8.07;;;;;;;;;;6102465;23;20166;-48
2022/06/27 03:15:06;;;;;;;16.73;7.65;;;;;;;;;;6102386;23;20189;-45
2022/06/27 03:17:34;;;;;;;11.20;7.80;;;;;;;;;;6102224;23;20170;-47
2022/06/27 03:20:20;;;;;;;15.48;8.30;;;;;;;;;;6127264;23;20162;-49
2022/06/27 03:22:55;;;;;;;27.77;8.30;;;;;;;;;;6103060;23;20158;-49
2022/06/27 03:25:22;;;;;;;17.92;7.30;;;;;;;;;;6128638;23;20590;-48
2022/06/27 03:27:50;;;;;;;17.10;7.63;;;;;;;;;;6103098;23;20233;-46
2022/06/27 03:30:17;;;;;;;14.95;9.05;;;;;;;;;;6103668;23;20171;-49
2022/06/27 03:32:47;;;;;;;20.27;8.82;;;;;;;;;;6127412;23;20185;-49
2022/06/27 03:35:16;;;;;;;21.77;8.25;;;;;;;;;;6103033;23;20265;-51
2022/06/27 03:37:43;;;;;;;15.80;7.85;;;;;;;;;;6101355;23;20253;-49
2022/06/27 03:40:12;;;;;;;12.70;8.30;;;;;;;;;;6101314;23;20185;-49
2022/06/27 03:42:45;;;;;;;13.05;8.13;;;;;;;;;;6126908;23;20656;-50
2022/06/27 03:45:12;;;;;;;12.02;8.35;;;;;;;;;;6101579;23;20253;-51
2022/06/27 03:47:52;;;;;;;12.63;8.27;;;;;;;;;;6101655;23;20181;-52
2022/06/27 03:50:42;;;;;;;9.27;8.27;;;;;;;;;;6115119;23;20196;-48
2022/06/27 03:53:09;;;;;;;12.27;9.05;;;;;;;;;;6101589;23;20178;-48
2022/06/27 03:55:37;;;;;;;15.40;7.95;;;;;;;;;;6029171;23;20177;-47
2022/06/27 03:58:06;;;;;;;10.48;7.20;;;;;;;;;;6125903;23;20538;-45
2022/06/27 04:00:38;;;;;;;13.73;8.15;;;;;;;;;;6102200;23;20165;-52
2022/06/27 04:03:07;;;;;;;13.13;7.32;;;;;;;;;;6101853;23;20170;-49
2022/06/27 04:05:43;;;;;;;10.48;6.95;;;;;;;;;;6101931;23;20162;-46
2022/06/27 04:08:12;;;;;;;8.68;6.88;;;;;;;;;;6101691;23;20174;-46
2022/06/27 04:10:40;;;;;;;12.13;6.70;;;;;;;;;;6127214;23;20216;-48
2022/06/27 04:13:08;;;;;;;10.10;7.15;;;;;;;;;;6101716;23;20178;-49
2022/06/27 04:15:38;;;;;;;9.48;7.30;;;;;;;;;;6121467;23;20206;-48
2022/06/27 04:18:24;;;;;;;10.82;7.28;;;;;;;;;;6127409;23;20198;-48
2022/06/27 04:21:09;;;;;;;9.93;7.10;;;;;;;;;;6126539;23;20536;-48
2022/06/27 04:23:45;;;;;;;7.88;6.95;;;;;;;;;;6102188;23;20213;-46
2022/06/27 04:26:17;;;;;;;7.78;6.70;;;;;;;;;;6101096;23;20209;-46
2022/06/27 04:28:44;;;;;;;17.83;7.03;;;;;;;;;;6127612;23;20198;-46
2022/06/27 04:31:13;;;;;;;14.82;7.07;;;;;;;;;;6100512;23;20198;-45
2022/06/27 04:33:40;;;;;;;11.73;6.82;;;;;;;;;;6102080;23;20207;-45
2022/06/27 04:36:08;;;;;;;7.75;6.05;;;;;;;;;;6126755;23;20208;-47
2022/06/27 04:38:36;;;;;;;11.68;6.70;;;;;;;;;;6101910;23;20205;-45
2022/06/27 04:41:29;;;;;;;12.40;8.15;;;;;;;;;;6126754;23;20265;-45
2022/06/27 04:43:57;;;;;;;10.60;6.28;;;;;;;;;;6102148;23;20264;-45
2022/06/27 04:46:24;;;;;;;9.23;6.80;;;;;;;;;;6100563;23;20198;-45
2022/06/27 04:48:51;;;;;;;14.77;6.57;;;;;;;;;;6127527;23;20205;-46
2022/06/27 04:51:19;;;;;;;8.05;6.13;;;;;;;;;;6101490;23;20194;-45
2022/06/27 04:53:46;;;;;;;8.93;6.32;;;;;;;;;;6103354;23;20198;-45
2022/06/27 04:56:14;;;;;;;10.93;5.80;;;;;;;;;;6126970;23;20229;-46
2022/06/27 04:58:41;;;;;;;8.20;5.88;;;;;;;;;;6102639;23;20205;-45
2022/06/27 05:01:09;;;;;;;10.90;5.88;;;;;;;;;;6101851;23;20202;-49
2022/06/27 05:03:47;;;;;;;12.05;6.10;;;;;;;;;;6102975;23;20216;-46
2022/06/27 05:06:18;;;;;;;6.72;5.82;;;;;;;;;;6102482;23;20224;-46
2022/06/27 05:08:46;;;;;;;6.25;5.45;;;;;;;;;;6103415;23;20663;-48
2022/06/27 05:11:15;;;;;;;7.88;5.22;;;;;;;;;;6103372;23;20206;-46
2022/06/27 05:13:42;;;;;;;5.93;5.22;;;;;;;;;;6128593;23;20209;-45
2022/06/27 05:16:20;;;;;;;10.73;5.78;;;;;;;;;;6102685;23;20641;-45
2022/06/27 05:18:47;;;;;;;7.95;5.32;;;;;;;;;;6103765;23;20205;-46
2022/06/27 05:21:34;;;;;;;8.30;5.75;;;;;;;;;;6104786;23;20155;-47
2022/06/27 05:24:02;;;;;;;9.55;5.70;;;;;;;;;;6105286;23;20204;-45
2022/06/27 05:26:29;;;;;;;7.63;5.97;;;;;;;;;;6104816;23;20170;-45
2022/06/27 05:28:56;;;;;;;7.65;5.57;;;;;;;;;;6105079;23;20174;-47
2022/06/27 05:31:23;;;;;;;9.10;4.88;;;;;;;;;;6104698;23;20247;-45
2022/06/27 05:33:50;;;;;;;6.13;4.90;;;;;;;;;;6104656;23;20248;-46
2022/06/27 05:36:17;;;;;;;9.07;4.80;;;;;;;;;;6104216;23;20174;-46
2022/06/27 05:38:44;;;;;;;6.20;4.70;;;;;;;;;;6130019;23;20257;-46
2022/06/27 05:41:12;;;;;;;9.95;4.90;;;;;;;;;;6104985;23;20177;-45
2022/06/27 05:43:40;;;;;;;6.38;4.15;;;;;;;;;;6104150;23;20174;-43
2022/06/27 05:46:07;;;;;;;9.20;4.43;;;;;;;;;;6104586;23;20185;-45
2022/06/27 05:49:03;;;;;;;6.03;4.68;;;;;;;;;;6103992;23;20675;-44
2022/06/27 05:51:38;;;;;;;7.90;4.82;;;;;;;;;;6104953;23;20185;-45
2022/06/27 05:54:06;;;;;;;4.93;4.43;;;;;;;;;;6104553;23;20178;-44
2022/06/27 05:56:33;;;;;;;5.15;4.18;;;;;;;;;;6104886;23;20582;-44
2022/06/27 05:59:01;;;;;;;6.63;4.10;;;;;;;;;;6104384;23;20529;-44
2022/06/27 06:01:33;;;;;;;5.45;4.25;;;;;;;;;;6103914;23;20475;-45
2022/06/27 06:04:00;;;;;;;7.28;4.25;;;;;;;;;;6128443;23;20221;-44
2022/06/27 06:06:28;;;;;;;7.53;4.05;;;;;;;;;;6104612;23;20245;-47
2022/06/27 06:08:55;;;;;;;9.57;4.32;;;;;;;;;;6103983;23;20174;-44
2022/06/27 06:11:23;;;;;;;4.70;4.20;;;;;;;;;;6103922;23;20555;-44
2022/06/27 06:13:50;;;;;;;6.28;3.97;;;;;;;;;;6103845;23;20597;-46
2022/06/27 06:16:19;;;;;;;6.25;4.00;;;;;;;;;;6104620;23;20170;-48
2022/06/27 06:18:52;;;;;;;8.02;4.25;;;;;;;;;;6104100;23;20236;-46
2022/06/27 06:21:21;;;;;;;5.93;4.28;;;;;;;;;;6103926;23;20590;-45
2022/06/27 06:23:51;;;;;;;6.05;4.43;;;;;;;;;;6103666;23;20668;-47
2022/06/27 06:26:19;;;;;;;5.15;4.10;;;;;;;;;;6129220;23;20174;-47
2022/06/27 06:28:48;;;;;;;5.30;4.57;;;;;;;;;;6104181;23;20174;-47
2022/06/27 06:31:23;;;;;;;12.07;3.95;;;;;;;;;;6103772;23;20189;-46
2022/06/27 06:33:59;;;;;;;8.63;3.90;;;;;;;;;;6104073;23;20162;-46
2022/06/27 06:36:26;;;;;;;5.10;3.60;;;;;;;;;;6129092;23;20636;-45
2022/06/27 06:38:54;;;;;;;5.20;4.07;;;;;;;;;;6103587;23;20471;-45
2022/06/27 06:41:22;;;;;;;3.97;3.40;;;;;;;;;;6103620;23;20480;-45
2022/06/27 06:43:49;;;;;;;4.78;3.50;;;;;;;;;;6129269;23;20170;-46
2022/06/27 06:46:32;;;;;;;4.28;3.70;;;;;;;;;;6104076;23;20225;-46
2022/06/27 06:49:09;;;;;;;3.92;3.38;;;;;;;;;;6069493;23;20304;-46
2022/06/27 06:51:39;;;;;;;7.35;3.67;;;;;;;;;;6069149;23;20690;-46
2022/06/27 06:54:07;;;;;;;5.95;3.75;;;;;;;;;;6069120;23;20175;-46
2022/06/27 06:56:35;;;;;;;6.43;3.67;;;;;;;;;;6069247;23;20179;-46
2022/06/27 06:59:05;;;;;;;7.00;3.17;;;;;;;;;;6069143;23;20191;-46
2022/06/27 07:01:33;;;;;;;7.38;3.50;;;;;;;;;;6069010;23;20195;-46
2022/06/27 07:04:00;;;;;;;4.50;3.33;;;;;;;;;;6068837;23;20195;-46
2022/06/27 07:06:29;;;;;;;5.47;3.10;;;;;;;;;;6069252;23;20175;-47
2022/06/27 07:08:58;;;;;;;3.17;2.88;;;;;;;;;;6068900;23;20599;-46
2022/06/27 07:11:27;;;;;;;6.28;2.95;;;;;;;;;;6069020;23;20172;-47
2022/06/27 07:13:56;;;;;;;4.82;2.80;;;;;;;;;;6068767;23;20175;-48
2022/06/27 07:16:25;;;;;;;6.38;3.05;;;;;;;;;;6068631;23;20195;-47
2022/06/27 07:18:54;;;;;;;3.78;2.85;;;;;;;;;;6068720;23;20175;-48
2022/06/27 07:21:22;;;;;;;4.53;3.30;;;;;;;;;;6128608;23;20184;-47
2022/06/27 07:23:50;;;;;;;5.18;3.10;;;;;;;;;;6129025;23;20205;-47
2022/06/27 07:26:19;;;;;;;3.20;2.90;;;;;;;;;;6128497;23;20633;-48
2022/06/27 07:28:47;;;;;;;3.30;3.00;;;;;;;;;;6102990;23;20169;-48
2022/06/27 07:31:14;;;;;;;4.78;2.90;;;;;;;;;;6103481;23;20171;-47
2022/06/27 07:33:43;;;;;;;3.80;2.97;;;;;;;;;;6128954;23;20170;-46
2022/06/27 07:36:18;;;;;;;5.60;3.17;;;;;;;;;;6128506;23;20188;-47
2022/06/27 07:38:47;;;;;;;3.45;3.00;;;;;;;;;;6128846;23;20158;-46
2022/06/27 07:41:16;;;;;;;6.10;3.40;;;;;;;;;;6128443;23;20175;-44
2022/06/27 07:43:46;;;;;;;3.20;2.90;;;;;;;;;;6128445;23;20594;-43
2022/06/27 07:46:15;;;;;;;4.45;3.03;;;;;;;;;;6128342;23;20190;-44
2022/06/27 07:48:42;;;;;;;3.88;2.75;;;;;;;;;;6128683;23;20197;-45
2022/06/27 07:51:09;;;;;;;7.05;2.90;;;;;;;;;;6128720;23;20171;-44
2022/06/27 07:53:37;;;;;;;5.80;3.00;;;;;;;;;;6128946;23;20174;-46
2022/06/27 07:56:06;;;;;;;4.00;2.72;;;;;;;;;;6128365;23;20239;-46
2022/06/27 07:58:35;;;;;;;4.68;2.53;;;;;;;;;;6128372;23;20483;-46
2022/06/27 08:01:07;;;;;;;4.85;2.95;;;;;;;;;;6128298;23;20174;-48
2022/06/27 08:03:40;;;;;;;4.90;2.85;;;;;;;;;;6128313;23;20162;-46
2022/06/27 08:06:11;;;;;;;4.90;2.60;;;;;;;;;;6128888;23;20240;-47
2022/06/27 08:08:41;;;;;;;4.95;2.70;;;;;;;;;;6128306;23;20521;-47
2022/06/27 08:11:13;;;;;;;5.47;2.97;;;;;;;;;;6129044;23;20180;-48
2022/06/27 08:13:41;;;;;;;5.32;2.50;;;;;;;;;;6128825;23;20155;-49
2022/06/27 08:16:12;;;;;;;7.25;2.78;;;;;;;;;;6128559;23;20170;-47
2022/06/27 08:18:40;;;;;;;5.32;2.47;;;;;;;;;;6128689;23;20155;-43
2022/06/27 08:21:08;;;;;;;4.30;2.55;;;;;;;;;;6128580;23;20185;-47
2022/06/27 08:23:36;;;;;;;3.70;2.80;;;;;;;;;;6128189;23;20174;-47
2022/06/27 08:26:08;;;;;;;3.55;2.72;;;;;;;;;;6128383;23;20194;-47
2022/06/27 08:28:37;;;;;;;7.35;2.80;;;;;;;;;;6128521;23;20173;-47
2022/06/27 08:31:07;;;;;;;5.18;3.10;;;;;;;;;;6128126;23;20248;-46
2022/06/27 08:33:35;;;;;;;3.80;3.15;;;;;;;;;;6129213;23;20158;-47
2022/06/27 08:36:04;;;;;;;7.22;3.10;;;;;;;;;;6128494;23;20174;-49
2022/06/27 08:38:42;;;;;;;5.72;3.20;;;;;;;;;;6128535;23;20543;-47
2022/06/27 08:41:10;;;;;;;3.55;2.70;;;;;;;;;;6128446;23;20158;-46
2022/06/27 08:43:38;;;;;;;5.88;2.85;;;;;;;;;;6127077;23;20174;-48
2022/06/27 08:46:06;;;;;;;4.10;2.88;;;;;;;;;;6127537;23;20217;-48
2022/06/27 08:48:41;;;;;;;4.97;2.78;;;;;;;;;;6127908;23;20284;-46
2022/06/27 08:51:09;;;;;;;6.25;2.97;;;;;;;;;;6128109;23;20184;-47
2022/06/27 08:53:39;;;;;;;6.75;2.80;;;;;;;;;;6128338;23;20188;-46
2022/06/27 08:56:09;;;;;;;5.50;2.95;;;;;;;;;;6103823;23;20177;-45
2022/06/27 08:58:37;;;;;;;3.22;2.28;;;;;;;;;;6128403;23;20206;-48
2022/06/27 09:01:05;;;;;;;7.07;2.60;;;;;;;;;;6128372;23;20174;-46
2022/06/27 09:03:33;;;;;;;4.93;2.85;;;;;;;;;;6128342;23;20174;-46
2022/06/27 09:06:03;;;;;;;3.05;2.30;;;;;;;;;;6128282;23;20261;-46
2022/06/27 09:08:34;;;;;;;3.45;2.60;;;;;;;;;;6128321;23;20154;-46
2022/06/27 09:11:01;;;;;;;5.82;2.60;;;;;;;;;;6128729;23;20270;-46
2022/06/27 09:13:28;;;;;;;4.80;2.55;;;;;;;;;;6128246;23;20189;-46
2022/06/27 09:15:58;;;;;;;5.15;2.50;;;;;;;;;;6128696;23;20200;-46
2022/06/27 09:18:27;;;;;;;3.95;2.30;;;;;;;;;;6128204;23;20181;-45
2022/06/27 09:20:57;;;;;;;3.78;2.53;;;;;;;;;;6128164;23;20181;-46
2022/06/27 09:23:49;;;;;;;5.28;2.40;;;;;;;;;;6127981;23;20166;-46
2022/06/27 09:26:18;;;;;;;2.92;2.38;;;;;;;;;;6128221;23;20206;-47
2022/06/27 09:28:53;;;;;;;3.35;2.45;;;;;;;;;;6127870;23;20185;-46
2022/06/27 09:31:26;;;;;;;3.88;2.90;;;;;;;;;;6127795;23;20612;-46
2022/06/27 09:34:05;;;;;;;7.88;2.58;;;;;;;;;;6128323;23;20541;-46
2022/06/27 09:36:34;;;;;;;3.55;2.38;;;;;;;;;;6128580;23;20162;-46
2022/06/27 09:39:03;;;;;;;3.95;2.30;;;;;;;;;;6128886;23;20201;-46
2022/06/27 09:41:30;;;;;;;5.68;2.72;;;;;;;;;;6129551;23;20184;-46
2022/06/27 09:44:06;;;;;;;7.53;2.60;;;;;;;;;;6129549;23;20597;-46
2022/06/27 09:46:36;;;;;;;2.83;2.42;;;;;;;;;;6129911;23;20182;-46
2022/06/27 09:49:05;;;;;;;4.25;2.50;;;;;;;;;;6129698;23;20613;-46
2022/06/27 09:51:37;;;;;;;3.92;2.35;;;;;;;;;;6104681;23;20174;-46
2022/06/27 09:54:10;;;;;;;2.30;2.10;;;;;;;;;;6129871;23;20166;-43
2022/06/27 09:56:39;;;;;;;4.45;2.50;;;;;;;;;;6129525;23;20601;-45
2022/06/27 09:59:11;;;;;;;2.92;2.33;;;;;;;;;;6129842;23;20258;-44
2022/06/27 10:01:40;;;;;;;5.63;2.58;;;;;;;;;;6129887;23;20159;-46
2022/06/27 10:04:09;;;;;;;3.30;2.90;;;;;;;;;;6129401;23;20597;-44
2022/06/27 10:06:41;;;;;;;4.30;2.40;;;;;;;;;;6129702;23;20204;-44
2022/06/27 10:09:09;;;;;;;4.25;2.40;;;;;;;;;;6104817;23;20221;-45
2022/06/27 10:11:37;;;;;;;3.33;2.45;;;;;;;;;;6129538;23;20494;-44
2022/06/27 10:14:22;;;;;;;4.00;2.53;;;;;;;;;;6104496;23;20174;-45
2022/06/27 10:16:51;;;;;;;4.03;2.63;;;;;;;;;;6129863;23;20205;-44
2022/06/27 10:19:18;;;;;;;2.83;2.30;;;;;;;;;;6129244;23;20205;-45
2022/06/27 10:21:46;;;;;;;3.90;2.47;;;;;;;;;;6129587;23;20194;-44
2022/06/27 10:24:16;;;;;;;3.75;2.70;;;;;;;;;;6129644;23;20170;-44
2022/06/27 10:26:43;;;;;;;5.28;2.55;;;;;;;;;;6129440;23;20198;-45
2022/06/27 10:29:29;;;;;;;5.18;2.80;;;;;;;;;;6129569;23;20177;-44
2022/06/27 10:31:57;;;;;;;2.42;2.17;;;;;;;;;;6129564;23;20169;-45
2022/06/27 10:34:39;;;;;;;4.47;2.95;;;;;;;;;;6129707;23;20236;-47
2022/06/27 10:37:33;;;;;;;2.58;2.30;;;;;;;;;;6129092;23;20225;-46
2022/06/27 10:40:19;;;;;;;3.72;2.38;;;;;;;;;;6124647;23;20174;-47
2022/06/27 10:42:54;;;;;;;3.13;2.28;;;;;;;;;;6129882;23;20154;-48
2022/06/27 10:45:21;;;;;;;3.55;2.50;;;;;;;;;;6129830;23;20483;-44
2022/06/27 10:47:50;;;;;;;3.03;2.10;;;;;;;;;;6129446;23;20174;-47
2022/06/27 10:50:19;;;;;;;4.72;2.40;;;;;;;;;;6129928;23;20198;-44
2022/06/27 10:52:46;;;;;;;7.55;2.45;;;;;;;;;;6128911;23;20481;-44
2022/06/27 10:55:24;;;;;;;2.50;2.30;;;;;;;;;;6129527;23;20182;-47
2022/06/27 10:57:53;;;;;;;2.67;2.30;;;;;;;;;;6129734;23;20168;-43
2022/06/27 11:00:40;;;;;;;4.20;2.83;;;;;;;;;;6103784;23;20601;-44
2022/06/27 11:03:10;;;;;;;3.97;2.28;;;;;;;;;;6104171;23;20250;-44
2022/06/27 11:06:02;;;;;;;5.55;2.47;;;;;;;;;;6104042;23;20198;-44
2022/06/27 11:08:35;;;;;;;7.20;2.40;;;;;;;;;;6129303;23;20159;-46
2022/06/27 11:11:06;;;;;;;3.33;2.28;;;;;;;;;;6128818;23;20170;-44
2022/06/27 11:13:45;;;;;;;2.83;2.17;;;;;;;;;;6113412;23;20505;-44
2022/06/27 11:16:18;;;;;;;3.03;2.05;;;;;;;;;;6129760;23;20174;-44
2022/06/27 11:18:50;;;;;;;2.90;2.10;;;;;;;;;;6128756;23;20171;-46
2022/06/27 11:21:20;;;;;;;2.40;1.92;;;;;;;;;;6128872;23;20465;-44
2022/06/27 11:23:59;;;;;;;3.90;2.30;;;;;;;;;;6129009;23;20170;-45
2022/06/27 11:26:29;;;;;;;4.82;2.30;;;;;;;;;;6129174;23;20185;-46
2022/06/27 11:32:05;;;;;;;2.42;2.10;;;;;;;;;;6129055;23;20158;-45
2022/06/27 11:34:48;;;;;;;4.10;2.20;;;;;;;;;;6129259;23;20162;-46
2022/06/27 11:37:17;;;;;;;3.30;2.40;;;;;;;;;;6104235;23;20169;-45
2022/06/27 11:39:58;;;;;;;2.28;2.08;;;;;;;;;;6103355;23;20184;-45
2022/06/27 11:42:33;;;;;;;2.40;2.20;;;;;;;;;;6128932;23;20165;-44
2022/06/27 11:45:07;;;;;;;5.38;2.47;;;;;;;;;;6128523;23;20161;-45
2022/06/27 11:47:40;;;;;;;2.97;2.35;;;;;;;;;;6129031;23;20162;-48
2022/06/27 11:50:13;;;;;;;5.57;2.30;;;;;;;;;;6129232;23;20256;-45
2022/06/27 11:52:42;;;;;;;3.72;2.20;;;;;;;;;;6128995;23;20158;-45
2022/06/27 11:55:12;;;;;;;2.47;2.28;;;;;;;;;;6128723;23;20174;-46
2022/06/27 11:57:44;;;;;;;3.13;2.55;;;;;;;;;;6128696;23;20240;-47
2022/06/27 12:00:17;;;;;;;4.88;2.83;;;;;;;;;;6129296;23;20191;-46
2022/06/27 12:02:45;;;;;;;2.75;2.35;;;;;;;;;;6128680;23;20235;-46
2022/06/27 12:05:20;;;;;;;2.25;2.05;;;;;;;;;;6128581;23;20170;-46
2022/06/27 12:07:56;;;;;;;4.03;2.58;;;;;;;;;;6129236;23;20166;-48
2022/06/27 12:10:39;;;;;;;5.60;2.22;;;;;;;;;;6128813;23;20220;-46
2022/06/27 12:13:11;;;;;;;5.47;2.50;;;;;;;;;;6128777;23;20457;-46
2022/06/27 12:15:40;;;;;;;2.35;2.10;;;;;;;;;;6128713;23;20162;-47
2022/06/27 12:18:09;;;;;;;6.22;2.38;;;;;;;;;;6129059;23;20170;-45
2022/06/27 12:20:36;;;;;;;3.17;2.25;;;;;;;;;;6128224;23;20180;-46
2022/06/27 12:23:03;;;;;;;4.53;2.00;;;;;;;;;;6128675;23;20241;-46
2022/06/27 12:25:30;;;;;;;3.45;2.28;;;;;;;;;;6128535;23;20170;-46
2022/06/27 12:27:57;;;;;;;3.30;2.20;;;;;;;;;;6128683;23;20170;-47
2022/06/27 12:30:24;;;;;;;3.47;2.10;;;;;;;;;;6128107;23;20555;-47
2022/06/27 12:32:51;;;;;;;2.70;2.05;;;;;;;;;;6128605;23;20181;-50
2022/06/27 12:35:19;;;;;;;12.30;6.25;;;;;;;;;;6128098;23;20237;-54
2022/06/27 12:37:46;;;;;;;2.92;2.42;;;;;;;;;;6121607;23;20178;-51
2022/06/27 12:40:13;;;;;;;3.35;2.30;;;;;;;;;;6124882;23;20198;-54
2022/06/27 12:42:40;;;;;;;6.53;2.20;;;;;;;;;;6126450;23;20197;-55
2022/06/27 12:45:08;;;;;;;4.70;2.38;;;;;;;;;;6125941;23;20201;-54
2022/06/27 12:47:35;;;;;;;3.45;2.20;;;;;;;;;;6125602;23;20629;-52
2022/06/27 12:50:03;;;;;;;6.13;3.00;;;;;;;;;;6126482;23;20645;-53
2022/06/27 12:52:30;;;;;;;3.08;2.22;;;;;;;;;;6125937;23;20206;-53
2022/06/27 12:54:57;;;;;;;3.40;2.22;;;;;;;;;;6125718;23;20468;-52
2022/06/27 12:57:25;;;;;;;4.28;2.40;;;;;;;;;;6126305;23;20205;-52
2022/06/27 12:59:59;;;;;;;2.20;2.00;;;;;;;;;;6125774;23;20197;-60
2022/06/27 13:02:26;;;;;;;5.55;2.28;;;;;;;;;;6125751;23;20209;-55
2022/06/27 13:04:53;;;;;;;2.20;1.98;;;;;;;;;;6125794;23;20225;-52
2022/06/27 13:07:20;;;;;;;4.22;2.63;;;;;;;;;;6125671;23;20240;-53
2022/06/27 13:09:47;;;;;;;5.43;2.10;;;;;;;;;;6100200;23;20202;-45
2022/06/27 13:12:14;;;;;;;3.78;1.80;;;;;;;;;;6125827;23;20208;-55
2022/06/27 13:14:41;;;;;;;4.60;2.13;;;;;;;;;;6126398;23;20194;-54
2022/06/27 13:17:08;;;;;;;2.90;1.90;;;;;;;;;;6129231;23;20475;-56
2022/06/27 13:19:35;;;;;;;4.70;2.03;;;;;;;;;;6128004;23;20197;-53
2022/06/27 13:22:02;;;;;;;2.38;2.03;;;;;;;;;;6128642;23;20198;-54
2022/06/27 13:24:30;;;;;;;7.93;2.30;;;;;;;;;;6103122;23;20201;-46
2022/06/27 13:26:57;;;;;;;3.58;1.88;;;;;;;;;;6128778;23;20213;-48
2022/06/27 13:29:25;;;;;;;35.03;25.23;;;;;;;;;;6128771;23;20205;-46
2022/06/27 13:31:55;;;;;;;14.93;10.48;;;;;;;;;;6128875;23;20198;-45
2022/06/27 13:34:23;;;;;;;3.78;2.30;;;;;;;;;;6128171;23;20197;-45
2022/06/27 13:37:10;;;;;;;5.05;2.10;;;;;;;;;;6128345;23;20198;-48
2022/06/27 13:39:38;;;;;;;2.35;1.70;;;;;;;;;;6103073;23;20224;-47
2022/06/27 13:42:05;;;;;;;2.78;2.05;;;;;;;;;;6129229;23;20193;-48
2022/06/27 13:44:33;;;;;;;3.00;2.15;;;;;;;;;;6130172;23;20177;-47
2022/06/27 13:47:00;;;;;;;2.22;2.03;;;;;;;;;;6129827;23;20198;-49
2022/06/27 13:49:28;;;;;;;2.35;2.03;;;;;;;;;;6129828;23;20209;-48
2022/06/27 13:51:55;;;;;;;3.15;2.33;;;;;;;;;;6129508;23;20609;-46
2022/06/27 13:54:22;;;;;;;2.50;1.92;;;;;;;;;;6130583;23;20185;-48
2022/06/27 13:56:49;;;;;;;5.25;1.90;;;;;;;;;;6130349;23;20178;-53
2022/06/27 13:59:16;;;;;;;3.15;1.90;;;;;;;;;;6129806;23;20170;-50
2022/06/27 14:01:44;;;;;;;2.58;2.10;;;;;;;;;;6129166;23;20184;-50
2022/06/27 14:04:12;;;;;;;3.60;2.00;;;;;;;;;;6129347;23;20236;-56
2022/06/27 14:09:26;;;;;;;5.80;2.13;;;;;;;;;;6127655;23;20170;-54
2022/06/27 14:11:54;;;;;;;12.90;2.45;;;;;;;;;;6123754;23;20198;-53
2022/06/27 14:14:21;;;;;;;4.70;2.03;;;;;;;;;;6128096;23;20209;-53
2022/06/27 14:16:48;;;;;;;5.20;1.95;;;;;;;;;;6128034;23;20218;-53
2022/06/27 14:19:17;;;;;;;6.40;2.05;;;;;;;;;;6126696;23;20198;-58
2022/06/27 14:21:44;;;;;;;4.47;2.80;;;;;;;;;;6127165;23;20198;-57
2022/06/27 14:24:11;;;;;;;3.08;2.00;;;;;;;;;;6127982;23;20205;-56
2022/06/27 14:26:38;;;;;;;2.95;1.95;;;;;;;;;;6127532;23;20222;-57
2022/06/27 14:29:05;;;;;;;4.22;1.88;;;;;;;;;;6127754;23;20273;-57
2022/06/27 14:31:33;;;;;;;4.38;2.20;;;;;;;;;;6127937;23;20205;-56
2022/06/27 14:34:01;;;;;;;9.75;2.38;;;;;;;;;;6128362;23;20668;-55
2022/06/27 14:36:28;;;;;;;5.15;2.28;;;;;;;;;;6125881;23;20189;-55
2022/06/27 14:38:56;;;;;;;5.38;2.60;;;;;;;;;;6128212;23;20241;-58
2022/06/27 14:41:23;;;;;;;5.13;2.05;;;;;;;;;;6127823;23;20174;-59
2022/06/27 14:43:55;;;;;;;5.43;2.03;;;;;;;;;;6127696;23;20237;-54
2022/06/27 14:46:22;;;;;;;6.72;2.22;;;;;;;;;;6127600;23;20217;-51
2022/06/27 14:48:49;;;;;;;2.78;2.03;;;;;;;;;;6127435;23;20302;-62
2022/06/27 14:51:16;;;;;;;6.93;2.42;;;;;;;;;;6127481;23;20185;-57
2022/06/27 14:53:43;;;;;;;3.65;2.35;;;;;;;;;;6127610;23;20178;-55
2022/06/27 14:56:10;;;;;;;2.80;1.95;;;;;;;;;;6127330;23;20253;-60
2022/06/27 14:58:37;;;;;;;3.13;2.05;;;;;;;;;;6128586;23;20170;-58
2022/06/27 15:01:04;;;;;;;2.67;2.13;;;;;;;;;;6127915;23;20178;-58